sensor_id;sensor_type;location;lat;lon;timestamp;temperature;humidity
45549;DHT22;31270;48.328;10.096;2022-09-20T00:00:48;7.80;99.90
45549;DHT22;31270;48.328;10.096;2022-09-20T00:03:15;7.70;99.90
45549;DHT22;31270;48.328;10.096;2022-09-20T00:05:43;7.70;99.90
45549;DHT22;31270;48.328;10.096;2022-09-20T00:08:14;7.70;99.90
45549;DHT22;31270;48.328;10.096;2022-09-20T00:10:41;7.70;99.90
45549;DHT22;31270;48.328;10.096;2022-09-20T00:13:10;7.60;99.90
45549;DHT22;31270;48.328;10.096;2022-09-20T00:15:43;7.60;99.90
45549;DHT22;31270;48.328;10.096;2022-09-20T00:18:10;7.50;99.90
45549;DHT22;31270;48.328;10.096;2022-09-20T00:20:43;7.40;99.90
45549;DHT22;31270;48.328;10.096;2022-09-20T00:23:09;7.40;99.90
45549;DHT22;31270;48.328;10.096;2022-09-20T00:25:34;7.30;99.90
45549;DHT22;31270;48.328;10.096;2022-09-20T00:28:00;7.30;99.90
45549;DHT22;31270;48.328;10.096;2022-09-20T00:30:26;7.20;99.90
45549;DHT22;31270;48.328;10.096;2022-09-20T00:32:51;7.20;99.90
45549;DHT22;31270;48.328;10.096;2022-09-20T00:35:17;7.40;99.90
45549;DHT22;31270;48.328;10.096;2022-09-20T00:37:43;7.20;99.90
45549;DHT22;31270;48.328;10.096;2022-09-20T00:40:13;7.10;99.90
45549;DHT22;31270;48.328;10.096;2022-09-20T00:42:39;7.20;99.90
45549;DHT22;31270;48.328;10.096;2022-09-20T00:45:28;7.00;99.90
45549;DHT22;31270;48.328;10.096;2022-09-20T00:48:14;7.00;99.90
45549;DHT22;31270;48.328;10.096;2022-09-20T00:50:48;6.90;99.90
45549;DHT22;31270;48.328;10.096;2022-09-20T00:53:24;6.90;99.90
45549;DHT22;31270;48.328;10.096;2022-09-20T00:58:21;6.90;99.90
45549;DHT22;31270;48.328;10.096;2022-09-20T01:00:48;6.90;99.90
45549;DHT22;31270;48.328;10.096;2022-09-20T01:03:16;6.90;99.90
45549;DHT22;31270;48.328;10.096;2022-09-20T01:05:44;6.80;99.90
45549;DHT22;31270;48.328;10.096;2022-09-20T01:08:10;6.80;99.90
45549;DHT22;31270;48.328;10.096;2022-09-20T01:10:36;6.90;99.90
45549;DHT22;31270;48.328;10.096;2022-09-20T01:13:02;6.90;99.90
45549;DHT22;31270;48.328;10.096;2022-09-20T01:15:31;6.80;99.90
45549;DHT22;31270;48.328;10.096;2022-09-20T01:17:59;6.80;99.90
45549;DHT22;31270;48.328;10.096;2022-09-20T01:20:32;6.80;99.90
45549;DHT22;31270;48.328;10.096;2022-09-20T01:28:42;6.70;99.90
45549;DHT22;31270;48.328;10.096;2022-09-20T01:31:45;6.70;99.90
45549;DHT22;31270;48.328;10.096;2022-09-20T01:34:14;6.70;99.90
45549;DHT22;31270;48.328;10.096;2022-09-20T01:40:08;6.60;99.90
45549;DHT22;31270;48.328;10.096;2022-09-20T01:42:38;6.60;99.90
45549;DHT22;31270;48.328;10.096;2022-09-20T02:12:54;6.50;99.90
45549;DHT22;31270;48.328;10.096;2022-09-20T02:23:56;6.60;99.90
45549;DHT22;31270;48.328;10.096;2022-09-20T02:32:42;6.70;99.90
45549;DHT22;31270;48.328;10.096;2022-09-20T02:35:31;6.80;99.90
45549;DHT22;31270;48.328;10.096;2022-09-20T02:46:58;6.80;99.90
45549;DHT22;31270;48.328;10.096;2022-09-20T02:55:48;7.00;99.90
45549;DHT22;31270;48.328;10.096;2022-09-20T02:58:53;7.00;99.90
45549;DHT22;31270;48.328;10.096;2022-09-20T03:01:16;7.10;99.90
45549;DHT22;31270;48.328;10.096;2022-09-20T03:03:55;7.10;99.90
45549;DHT22;31270;48.328;10.096;2022-09-20T03:06:46;7.10;99.90
45549;DHT22;31270;48.328;10.096;2022-09-20T03:12:25;7.10;99.90
45549;DHT22;31270;48.328;10.096;2022-09-20T03:15:39;7.10;99.90
45549;DHT22;31270;48.328;10.096;2022-09-20T03:18:16;7.10;99.90
45549;DHT22;31270;48.328;10.096;2022-09-20T03:21:04;7.00;99.90
45549;DHT22;31270;48.328;10.096;2022-09-20T03:24:03;7.10;99.90
45549;DHT22;31270;48.328;10.096;2022-09-20T03:29:37;7.10;99.90
45549;DHT22;31270;48.328;10.096;2022-09-20T03:35:05;7.10;99.90
45549;DHT22;31270;48.328;10.096;2022-09-20T03:37:46;7.20;99.90
45549;DHT22;31270;48.328;10.096;2022-09-20T03:42:50;7.10;99.90
45549;DHT22;31270;48.328;10.096;2022-09-20T03:45:44;7.10;99.90
45549;DHT22;31270;48.328;10.096;2022-09-20T04:01:49;7.10;99.90
45549;DHT22;31270;48.328;10.096;2022-09-20T04:04:43;7.20;99.90
45549;DHT22;31270;48.328;10.096;2022-09-20T04:13:10;7.20;99.90
45549;DHT22;31270;48.328;10.096;2022-09-20T04:15:57;7.20;99.90
45549;DHT22;31270;48.328;10.096;2022-09-20T04:18:42;7.30;99.90
45549;DHT22;31270;48.328;10.096;2022-09-20T04:27:34;7.40;99.90
45549;DHT22;31270;48.328;10.096;2022-09-20T04:32:59;7.40;99.90
45549;DHT22;31270;48.328;10.096;2022-09-20T04:38:34;7.40;99.90
45549;DHT22;31270;48.328;10.096;2022-09-20T04:41:29;7.40;99.90
45549;DHT22;31270;48.328;10.096;2022-09-20T04:55:54;7.40;99.90
45549;DHT22;31270;48.328;10.096;2022-09-20T05:13:11;7.50;99.90
45549;DHT22;31270;48.328;10.096;2022-09-20T05:18:40;7.50;99.90
45549;DHT22;31270;48.328;10.096;2022-09-20T05:24:19;7.50;99.90
45549;DHT22;31270;48.328;10.096;2022-09-20T05:26:56;7.50;99.90
45549;DHT22;31270;48.328;10.096;2022-09-20T05:30:02;7.50;99.90
45549;DHT22;31270;48.328;10.096;2022-09-20T05:32:47;7.50;99.90
45549;DHT22;31270;48.328;10.096;2022-09-20T05:35:30;7.50;99.90
45549;DHT22;31270;48.328;10.096;2022-09-20T05:38:04;7.40;99.90
45549;DHT22;31270;48.328;10.096;2022-09-20T05:43:31;7.50;99.90
45549;DHT22;31270;48.328;10.096;2022-09-20T05:46:36;7.50;99.90
45549;DHT22;31270;48.328;10.096;2022-09-20T05:49:17;7.40;99.90
45549;DHT22;31270;48.328;10.096;2022-09-20T05:54:51;7.40;99.90
45549;DHT22;31270;48.328;10.096;2022-09-20T06:00:04;7.30;99.90
45549;DHT22;31270;48.328;10.096;2022-09-20T06:06:24;7.50;99.90
45549;DHT22;31270;48.328;10.096;2022-09-20T06:17:06;7.60;99.90
45549;DHT22;31270;48.328;10.096;2022-09-20T06:20:15;7.80;99.90
45549;DHT22;31270;48.328;10.096;2022-09-20T06:22:40;7.70;99.90
45549;DHT22;31270;48.328;10.096;2022-09-20T06:27:53;7.90;99.90
45549;DHT22;31270;48.328;10.096;2022-09-20T06:30:24;7.90;99.90
45549;DHT22;31270;48.328;10.096;2022-09-20T06:32:59;8.00;99.90
45549;DHT22;31270;48.328;10.096;2022-09-20T06:36:03;8.00;99.90
45549;DHT22;31270;48.328;10.096;2022-09-20T06:39:00;8.00;99.90
45549;DHT22;31270;48.328;10.096;2022-09-20T06:41:47;8.00;99.90
45549;DHT22;31270;48.328;10.096;2022-09-20T06:44:14;8.00;99.90
45549;DHT22;31270;48.328;10.096;2022-09-20T06:46:39;8.10;99.90
45549;DHT22;31270;48.328;10.096;2022-09-20T06:49:06;8.10;99.90
45549;DHT22;31270;48.328;10.096;2022-09-20T06:51:36;8.00;99.90
45549;DHT22;31270;48.328;10.096;2022-09-20T06:54:03;8.10;99.90
45549;DHT22;31270;48.328;10.096;2022-09-20T06:56:31;8.10;99.90
45549;DHT22;31270;48.328;10.096;2022-09-20T06:59:04;8.10;99.90
45549;DHT22;31270;48.328;10.096;2022-09-20T07:01:32;8.10;99.90
45549;DHT22;31270;48.328;10.096;2022-09-20T07:03:58;8.20;99.90
45549;DHT22;31270;48.328;10.096;2022-09-20T07:06:24;8.20;99.90
45549;DHT22;31270;48.328;10.096;2022-09-20T07:08:49;8.20;99.90
45549;DHT22;31270;48.328;10.096;2022-09-20T07:11:16;8.20;99.90
45549;DHT22;31270;48.328;10.096;2022-09-20T07:13:42;8.20;99.90
45549;DHT22;31270;48.328;10.096;2022-09-20T07:16:11;8.30;99.90
45549;DHT22;31270;48.328;10.096;2022-09-20T07:18:38;8.30;99.90
45549;DHT22;31270;48.328;10.096;2022-09-20T07:21:08;8.40;99.90
45549;DHT22;31270;48.328;10.096;2022-09-20T07:23:34;8.40;99.90
45549;DHT22;31270;48.328;10.096;2022-09-20T07:26:00;8.40;99.90
45549;DHT22;31270;48.328;10.096;2022-09-20T07:28:30;8.50;99.90
45549;DHT22;31270;48.328;10.096;2022-09-20T07:30:56;8.50;99.90
45549;DHT22;31270;48.328;10.096;2022-09-20T07:33:22;8.60;99.90
45549;DHT22;31270;48.328;10.096;2022-09-20T07:35:53;8.70;99.90
45549;DHT22;31270;48.328;10.096;2022-09-20T07:38:21;8.80;99.90
45549;DHT22;31270;48.328;10.096;2022-09-20T07:40:57;8.80;99.90
45549;DHT22;31270;48.328;10.096;2022-09-20T07:43:24;8.90;99.90
45549;DHT22;31270;48.328;10.096;2022-09-20T07:45:50;9.00;99.90
45549;DHT22;31270;48.328;10.096;2022-09-20T07:48:20;9.00;99.90
45549;DHT22;31270;48.328;10.096;2022-09-20T07:50:55;9.10;99.90
45549;DHT22;31270;48.328;10.096;2022-09-20T07:53:21;9.20;99.90
45549;DHT22;31270;48.328;10.096;2022-09-20T07:56:11;9.30;99.90
45549;DHT22;31270;48.328;10.096;2022-09-20T07:58:37;9.40;99.90
45549;DHT22;31270;48.328;10.096;2022-09-20T08:01:12;9.40;99.90
45549;DHT22;31270;48.328;10.096;2022-09-20T08:03:39;9.50;99.90
45549;DHT22;31270;48.328;10.096;2022-09-20T08:06:10;9.60;99.90
45549;DHT22;31270;48.328;10.096;2022-09-20T08:08:38;9.70;99.90
45549;DHT22;31270;48.328;10.096;2022-09-20T08:11:16;9.70;99.90
45549;DHT22;31270;48.328;10.096;2022-09-20T08:13:44;9.90;99.90
45549;DHT22;31270;48.328;10.096;2022-09-20T08:16:11;10.00;99.90
45549;DHT22;31270;48.328;10.096;2022-09-20T08:18:37;10.10;99.90
45549;DHT22;31270;48.328;10.096;2022-09-20T08:21:08;10.20;99.90
45549;DHT22;31270;48.328;10.096;2022-09-20T08:23:39;10.30;99.90
45549;DHT22;31270;48.328;10.096;2022-09-20T08:26:08;10.40;99.90
45549;DHT22;31270;48.328;10.096;2022-09-20T08:28:33;10.40;99.90
45549;DHT22;31270;48.328;10.096;2022-09-20T08:31:03;10.60;99.90
45549;DHT22;31270;48.328;10.096;2022-09-20T08:33:30;10.60;99.90
45549;DHT22;31270;48.328;10.096;2022-09-20T08:35:55;10.70;99.90
45549;DHT22;31270;48.328;10.096;2022-09-20T08:38:21;10.80;99.90
45549;DHT22;31270;48.328;10.096;2022-09-20T08:41:34;10.90;99.90
45549;DHT22;31270;48.328;10.096;2022-09-20T08:44:05;11.10;99.90
45549;DHT22;31270;48.328;10.096;2022-09-20T08:46:38;11.30;99.90
45549;DHT22;31270;48.328;10.096;2022-09-20T08:49:05;11.40;99.90
45549;DHT22;31270;48.328;10.096;2022-09-20T08:51:34;11.60;99.90
45549;DHT22;31270;48.328;10.096;2022-09-20T08:54:02;11.80;99.90
45549;DHT22;31270;48.328;10.096;2022-09-20T08:56:34;11.90;99.90
45549;DHT22;31270;48.328;10.096;2022-09-20T08:59:01;12.00;99.90
45549;DHT22;31270;48.328;10.096;2022-09-20T09:01:28;12.00;99.90
45549;DHT22;31270;48.328;10.096;2022-09-20T09:04:11;12.00;99.90
45549;DHT22;31270;48.328;10.096;2022-09-20T09:06:38;12.10;99.90
45549;DHT22;31270;48.328;10.096;2022-09-20T09:09:04;12.20;99.90
45549;DHT22;31270;48.328;10.096;2022-09-20T09:11:30;12.30;99.90
45549;DHT22;31270;48.328;10.096;2022-09-20T09:14:45;12.30;99.90
45549;DHT22;31270;48.328;10.096;2022-09-20T09:17:04;12.30;99.90
45549;DHT22;31270;48.328;10.096;2022-09-20T09:19:32;12.30;99.90
45549;DHT22;31270;48.328;10.096;2022-09-20T09:22:07;12.20;99.90
45549;DHT22;31270;48.328;10.096;2022-09-20T09:24:34;12.30;99.90
45549;DHT22;31270;48.328;10.096;2022-09-20T09:27:15;12.30;99.90
45549;DHT22;31270;48.328;10.096;2022-09-20T09:29:52;12.40;99.90
45549;DHT22;31270;48.328;10.096;2022-09-20T09:34:45;12.40;99.90
45549;DHT22;31270;48.328;10.096;2022-09-20T09:37:31;12.50;99.90
45549;DHT22;31270;48.328;10.096;2022-09-20T09:40:17;12.40;99.90
45549;DHT22;31270;48.328;10.096;2022-09-20T09:42:55;12.40;99.90
45549;DHT22;31270;48.328;10.096;2022-09-20T09:45:32;12.40;99.90
45549;DHT22;31270;48.328;10.096;2022-09-20T09:48:01;12.20;99.90
45549;DHT22;31270;48.328;10.096;2022-09-20T09:50:32;12.20;99.90
45549;DHT22;31270;48.328;10.096;2022-09-20T09:53:12;12.30;99.90
45549;DHT22;31270;48.328;10.096;2022-09-20T09:56:00;12.30;99.90
45549;DHT22;31270;48.328;10.096;2022-09-20T09:58:33;12.30;99.90
45549;DHT22;31270;48.328;10.096;2022-09-20T10:01:07;12.20;99.90
45549;DHT22;31270;48.328;10.096;2022-09-20T10:04:18;12.30;99.90
45549;DHT22;31270;48.328;10.096;2022-09-20T10:06:53;12.40;99.90
45549;DHT22;31270;48.328;10.096;2022-09-20T10:18:17;12.90;99.90
45549;DHT22;31270;48.328;10.096;2022-09-20T10:21:01;13.10;99.90
45549;DHT22;31270;48.328;10.096;2022-09-20T10:26:34;13.10;99.90
45549;DHT22;31270;48.328;10.096;2022-09-20T10:35:24;13.60;99.90
45549;DHT22;31270;48.328;10.096;2022-09-20T10:38:17;13.90;99.90
45549;DHT22;31270;48.328;10.096;2022-09-20T10:41:11;14.30;99.90
45549;DHT22;31270;48.328;10.096;2022-09-20T10:47:15;14.60;99.90
45549;DHT22;31270;48.328;10.096;2022-09-20T11:00:47;14.60;99.90
45549;DHT22;31270;48.328;10.096;2022-09-20T11:06:05;14.50;99.90
45549;DHT22;31270;48.328;10.096;2022-09-20T11:08:36;14.50;99.90
45549;DHT22;31270;48.328;10.096;2022-09-20T11:16:16;14.80;99.90
45549;DHT22;31270;48.328;10.096;2022-09-20T11:18:57;14.70;99.90
45549;DHT22;31270;48.328;10.096;2022-09-20T11:21:35;14.60;99.90
45549;DHT22;31270;48.328;10.096;2022-09-20T11:26:50;14.40;99.90
45549;DHT22;31270;48.328;10.096;2022-09-20T11:31:52;14.30;99.90
45549;DHT22;31270;48.328;10.096;2022-09-20T11:34:29;14.30;99.90
45549;DHT22;31270;48.328;10.096;2022-09-20T11:36:58;14.40;99.90
45549;DHT22;31270;48.328;10.096;2022-09-20T11:39:46;14.40;99.90
45549;DHT22;31270;48.328;10.096;2022-09-20T11:42:17;14.60;99.90
45549;DHT22;31270;48.328;10.096;2022-09-20T11:44:44;14.60;99.90
45549;DHT22;31270;48.328;10.096;2022-09-20T11:47:29;14.40;99.90
45549;DHT22;31270;48.328;10.096;2022-09-20T11:57:43;14.70;99.90
45549;DHT22;31270;48.328;10.096;2022-09-20T12:00:11;14.80;99.90
45549;DHT22;31270;48.328;10.096;2022-09-20T12:02:49;14.60;99.90
45549;DHT22;31270;48.328;10.096;2022-09-20T12:05:38;14.60;99.90
45549;DHT22;31270;48.328;10.096;2022-09-20T12:08:15;14.60;99.90
45549;DHT22;31270;48.328;10.096;2022-09-20T12:10:42;14.60;99.90
45549;DHT22;31270;48.328;10.096;2022-09-20T12:13:23;14.60;99.90
45549;DHT22;31270;48.328;10.096;2022-09-20T12:16:05;14.80;99.90
45549;DHT22;31270;48.328;10.096;2022-09-20T12:18:36;14.70;99.90
45549;DHT22;31270;48.328;10.096;2022-09-20T12:21:08;14.80;99.90
45549;DHT22;31270;48.328;10.096;2022-09-20T12:26:35;14.80;99.90
45549;DHT22;31270;48.328;10.096;2022-09-20T12:31:49;15.20;99.90
45549;DHT22;31270;48.328;10.096;2022-09-20T12:39:24;16.20;99.90
45549;DHT22;31270;48.328;10.096;2022-09-20T12:47:28;16.50;99.90
45549;DHT22;31270;48.328;10.096;2022-09-20T12:49:59;16.60;99.90
45549;DHT22;31270;48.328;10.096;2022-09-20T13:14:10;16.70;99.90
45549;DHT22;31270;48.328;10.096;2022-09-20T13:16:45;16.80;99.90
45549;DHT22;31270;48.328;10.096;2022-09-20T13:19:27;16.70;99.90
45549;DHT22;31270;48.328;10.096;2022-09-20T13:22:04;16.60;99.90
45549;DHT22;31270;48.328;10.096;2022-09-20T13:24:40;16.50;99.90
45549;DHT22;31270;48.328;10.096;2022-09-20T13:27:17;16.30;99.90
45549;DHT22;31270;48.328;10.096;2022-09-20T13:29:44;16.30;99.90
45549;DHT22;31270;48.328;10.096;2022-09-20T13:32:30;16.50;99.90
45549;DHT22;31270;48.328;10.096;2022-09-20T13:40:36;16.30;99.90
45549;DHT22;31270;48.328;10.096;2022-09-20T13:43:05;16.30;99.90
45549;DHT22;31270;48.328;10.096;2022-09-20T13:45:32;16.10;99.90
45549;DHT22;31270;48.328;10.096;2022-09-20T13:47:59;16.00;99.90
45549;DHT22;31270;48.328;10.096;2022-09-20T13:52:59;16.00;99.90
45549;DHT22;31270;48.328;10.096;2022-09-20T13:55:34;16.00;99.90
45549;DHT22;31270;48.328;10.096;2022-09-20T13:58:35;16.10;99.90
45549;DHT22;31270;48.328;10.096;2022-09-20T14:00:57;16.00;99.90
45549;DHT22;31270;48.328;10.096;2022-09-20T14:03:25;15.90;99.90
45549;DHT22;31270;48.328;10.096;2022-09-20T14:05:57;16.00;99.90
45549;DHT22;31270;48.328;10.096;2022-09-20T14:08:30;16.10;99.90
45549;DHT22;31270;48.328;10.096;2022-09-20T14:11:15;16.20;99.90
45549;DHT22;31270;48.328;10.096;2022-09-20T14:13:49;16.20;99.90
45549;DHT22;31270;48.328;10.096;2022-09-20T14:16:17;16.30;99.90
45549;DHT22;31270;48.328;10.096;2022-09-20T14:18:44;16.30;99.90
45549;DHT22;31270;48.328;10.096;2022-09-20T14:21:16;16.20;99.90
45549;DHT22;31270;48.328;10.096;2022-09-20T14:23:53;16.10;99.90
45549;DHT22;31270;48.328;10.096;2022-09-20T14:28:45;15.90;99.90
45549;DHT22;31270;48.328;10.096;2022-09-20T14:31:24;15.90;99.90
45549;DHT22;31270;48.328;10.096;2022-09-20T14:33:53;16.00;99.90
45549;DHT22;31270;48.328;10.096;2022-09-20T14:36:22;16.00;99.90
45549;DHT22;31270;48.328;10.096;2022-09-20T14:38:50;16.10;99.90
45549;DHT22;31270;48.328;10.096;2022-09-20T14:41:26;16.20;99.90
45549;DHT22;31270;48.328;10.096;2022-09-20T14:43:58;15.90;99.90
45549;DHT22;31270;48.328;10.096;2022-09-20T14:46:31;16.00;99.90
45549;DHT22;31270;48.328;10.096;2022-09-20T14:49:29;16.00;99.90
45549;DHT22;31270;48.328;10.096;2022-09-20T14:52:34;16.00;99.90
45549;DHT22;31270;48.328;10.096;2022-09-20T14:55:26;16.30;99.90
45549;DHT22;31270;48.328;10.096;2022-09-20T14:58:04;16.20;99.90
45549;DHT22;31270;48.328;10.096;2022-09-20T15:00:49;16.10;99.90
45549;DHT22;31270;48.328;10.096;2022-09-20T15:03:19;16.00;99.90
45549;DHT22;31270;48.328;10.096;2022-09-20T15:05:48;15.90;99.90
45549;DHT22;31270;48.328;10.096;2022-09-20T15:08:15;15.90;99.90
45549;DHT22;31270;48.328;10.096;2022-09-20T15:10:42;15.90;99.90
45549;DHT22;31270;48.328;10.096;2022-09-20T15:13:09;15.90;99.90
45549;DHT22;31270;48.328;10.096;2022-09-20T15:15:36;15.90;99.90
45549;DHT22;31270;48.328;10.096;2022-09-20T15:18:01;16.00;99.90
45549;DHT22;31270;48.328;10.096;2022-09-20T15:20:27;15.90;99.90
45549;DHT22;31270;48.328;10.096;2022-09-20T15:22:54;15.80;99.90
45549;DHT22;31270;48.328;10.096;2022-09-20T15:25:22;15.70;99.90
45549;DHT22;31270;48.328;10.096;2022-09-20T15:27:48;15.50;99.90
45549;DHT22;31270;48.328;10.096;2022-09-20T15:30:17;15.50;99.90
45549;DHT22;31270;48.328;10.096;2022-09-20T15:32:44;15.50;99.90
45549;DHT22;31270;48.328;10.096;2022-09-20T15:35:11;15.50;99.90
45549;DHT22;31270;48.328;10.096;2022-09-20T15:37:38;15.40;99.90
45549;DHT22;31270;48.328;10.096;2022-09-20T15:40:04;15.40;99.90
45549;DHT22;31270;48.328;10.096;2022-09-20T15:42:31;15.30;99.90
45549;DHT22;31270;48.328;10.096;2022-09-20T15:44:56;15.20;99.90
45549;DHT22;31270;48.328;10.096;2022-09-20T15:47:22;15.20;99.90
45549;DHT22;31270;48.328;10.096;2022-09-20T15:49:49;15.10;99.90
45549;DHT22;31270;48.328;10.096;2022-09-20T15:52:14;15.10;99.90
45549;DHT22;31270;48.328;10.096;2022-09-20T15:54:40;14.90;99.90
45549;DHT22;31270;48.328;10.096;2022-09-20T15:57:07;14.80;99.90
45549;DHT22;31270;48.328;10.096;2022-09-20T15:59:33;14.60;99.90
45549;DHT22;31270;48.328;10.096;2022-09-20T16:01:59;14.50;99.90
45549;DHT22;31270;48.328;10.096;2022-09-20T16:04:24;14.40;99.90
45549;DHT22;31270;48.328;10.096;2022-09-20T16:06:52;14.30;99.90
45549;DHT22;31270;48.328;10.096;2022-09-20T16:09:19;14.20;99.90
45549;DHT22;31270;48.328;10.096;2022-09-20T16:11:45;14.10;99.90
45549;DHT22;31270;48.328;10.096;2022-09-20T16:14:12;14.10;99.90
45549;DHT22;31270;48.328;10.096;2022-09-20T16:16:37;13.90;99.90
45549;DHT22;31270;48.328;10.096;2022-09-20T16:19:03;13.80;99.90
45549;DHT22;31270;48.328;10.096;2022-09-20T16:21:53;13.80;99.90
45549;DHT22;31270;48.328;10.096;2022-09-20T16:24:24;13.80;99.90
45549;DHT22;31270;48.328;10.096;2022-09-20T16:26:51;13.70;99.90
45549;DHT22;31270;48.328;10.096;2022-09-20T16:29:17;13.70;99.90
45549;DHT22;31270;48.328;10.096;2022-09-20T16:31:50;13.60;99.90
45549;DHT22;31270;48.328;10.096;2022-09-20T16:34:28;13.60;99.90
45549;DHT22;31270;48.328;10.096;2022-09-20T16:37:00;13.50;99.90
45549;DHT22;31270;48.328;10.096;2022-09-20T16:39:26;13.40;99.90
45549;DHT22;31270;48.328;10.096;2022-09-20T16:41:55;13.30;99.90
45549;DHT22;31270;48.328;10.096;2022-09-20T16:44:28;13.20;99.90
45549;DHT22;31270;48.328;10.096;2022-09-20T16:46:55;13.10;99.90
45549;DHT22;31270;48.328;10.096;2022-09-20T16:49:21;13.10;99.90
45549;DHT22;31270;48.328;10.096;2022-09-20T16:51:47;12.90;99.90
45549;DHT22;31270;48.328;10.096;2022-09-20T16:54:16;12.70;99.90
45549;DHT22;31270;48.328;10.096;2022-09-20T16:56:44;12.80;99.90
45549;DHT22;31270;48.328;10.096;2022-09-20T16:59:12;12.60;99.90
45549;DHT22;31270;48.328;10.096;2022-09-20T17:01:39;12.50;99.90
45549;DHT22;31270;48.328;10.096;2022-09-20T17:04:05;12.40;99.90
45549;DHT22;31270;48.328;10.096;2022-09-20T17:06:33;12.40;99.90
45549;DHT22;31270;48.328;10.096;2022-09-20T17:08:59;12.40;99.90
45549;DHT22;31270;48.328;10.096;2022-09-20T17:11:27;12.20;99.90
45549;DHT22;31270;48.328;10.096;2022-09-20T17:13:54;12.10;99.90
45549;DHT22;31270;48.328;10.096;2022-09-20T17:16:26;12.00;99.90
45549;DHT22;31270;48.328;10.096;2022-09-20T17:19:00;11.80;99.90
45549;DHT22;31270;48.328;10.096;2022-09-20T17:21:27;11.60;99.90
45549;DHT22;31270;48.328;10.096;2022-09-20T17:23:55;11.50;99.90
45549;DHT22;31270;48.328;10.096;2022-09-20T17:26:27;11.40;99.90
45549;DHT22;31270;48.328;10.096;2022-09-20T17:28:56;11.40;99.90
45549;DHT22;31270;48.328;10.096;2022-09-20T17:31:32;11.40;99.90
45549;DHT22;31270;48.328;10.096;2022-09-20T17:33:59;11.10;99.90
45549;DHT22;31270;48.328;10.096;2022-09-20T17:36:29;11.00;99.90
45549;DHT22;31270;48.328;10.096;2022-09-20T17:38:56;10.90;99.90
45549;DHT22;31270;48.328;10.096;2022-09-20T17:41:25;10.80;99.90
45549;DHT22;31270;48.328;10.096;2022-09-20T17:43:55;10.70;99.90
45549;DHT22;31270;48.328;10.096;2022-09-20T17:46:25;10.60;99.90
45549;DHT22;31270;48.328;10.096;2022-09-20T17:48:55;10.50;99.90
45549;DHT22;31270;48.328;10.096;2022-09-20T17:51:23;10.40;99.90
45549;DHT22;31270;48.328;10.096;2022-09-20T17:53:49;10.30;99.90
45549;DHT22;31270;48.328;10.096;2022-09-20T17:56:15;10.30;99.90
45549;DHT22;31270;48.328;10.096;2022-09-20T17:58:41;10.30;99.90
45549;DHT22;31270;48.328;10.096;2022-09-20T18:01:10;10.20;99.90
45549;DHT22;31270;48.328;10.096;2022-09-20T18:03:37;10.20;99.90
45549;DHT22;31270;48.328;10.096;2022-09-20T18:06:17;10.10;99.90
45549;DHT22;31270;48.328;10.096;2022-09-20T18:08:49;10.00;99.90
45549;DHT22;31270;48.328;10.096;2022-09-20T18:11:17;10.00;99.90
45549;DHT22;31270;48.328;10.096;2022-09-20T18:13:43;9.90;99.90
45549;DHT22;31270;48.328;10.096;2022-09-20T18:16:10;9.80;99.90
45549;DHT22;31270;48.328;10.096;2022-09-20T18:18:39;9.70;99.90
45549;DHT22;31270;48.328;10.096;2022-09-20T18:21:13;9.70;99.90
45549;DHT22;31270;48.328;10.096;2022-09-20T18:23:40;9.50;99.90
45549;DHT22;31270;48.328;10.096;2022-09-20T18:26:07;9.50;99.90
45549;DHT22;31270;48.328;10.096;2022-09-20T18:29:08;9.40;99.90
45549;DHT22;31270;48.328;10.096;2022-09-20T18:31:39;9.30;99.90
45549;DHT22;31270;48.328;10.096;2022-09-20T18:34:12;9.30;99.90
45549;DHT22;31270;48.328;10.096;2022-09-20T18:36:40;9.20;99.90
45549;DHT22;31270;48.328;10.096;2022-09-20T18:39:06;9.10;99.90
45549;DHT22;31270;48.328;10.096;2022-09-20T18:41:33;9.00;99.90
45549;DHT22;31270;48.328;10.096;2022-09-20T18:44:01;9.00;99.90
45549;DHT22;31270;48.328;10.096;2022-09-20T18:46:28;8.90;99.90
45549;DHT22;31270;48.328;10.096;2022-09-20T18:48:56;8.90;99.90
45549;DHT22;31270;48.328;10.096;2022-09-20T18:51:24;8.90;99.90
45549;DHT22;31270;48.328;10.096;2022-09-20T18:53:50;8.80;99.90
45549;DHT22;31270;48.328;10.096;2022-09-20T18:56:21;8.80;99.90
45549;DHT22;31270;48.328;10.096;2022-09-20T18:58:58;8.80;99.90
45549;DHT22;31270;48.328;10.096;2022-09-20T19:15:20;8.50;99.90
45549;DHT22;31270;48.328;10.096;2022-09-20T19:23:09;8.40;99.90
45549;DHT22;31270;48.328;10.096;2022-09-20T19:25:46;8.30;99.90
45549;DHT22;31270;48.328;10.096;2022-09-20T19:28:13;8.30;99.90
45549;DHT22;31270;48.328;10.096;2022-09-20T19:30:40;8.20;99.90
45549;DHT22;31270;48.328;10.096;2022-09-20T19:33:17;8.20;99.90
45549;DHT22;31270;48.328;10.096;2022-09-20T19:35:50;8.20;99.90
45549;DHT22;31270;48.328;10.096;2022-09-20T19:52:16;7.90;99.90
45549;DHT22;31270;48.328;10.096;2022-09-20T19:54:42;7.90;99.90
45549;DHT22;31270;48.328;10.096;2022-09-20T19:57:21;7.90;99.90
45549;DHT22;31270;48.328;10.096;2022-09-20T19:59:48;7.90;99.90
45549;DHT22;31270;48.328;10.096;2022-09-20T20:02:15;7.90;99.90
45549;DHT22;31270;48.328;10.096;2022-09-20T20:04:42;7.80;99.90
45549;DHT22;31270;48.328;10.096;2022-09-20T20:20:48;7.60;99.90
45549;DHT22;31270;48.328;10.096;2022-09-20T20:26:08;7.60;99.90
45549;DHT22;31270;48.328;10.096;2022-09-20T20:28:41;7.60;99.90
45549;DHT22;31270;48.328;10.096;2022-09-20T20:31:07;7.70;99.90
45549;DHT22;31270;48.328;10.096;2022-09-20T20:33:37;7.60;99.90
45549;DHT22;31270;48.328;10.096;2022-09-20T20:36:03;7.50;99.90
45549;DHT22;31270;48.328;10.096;2022-09-20T20:38:33;7.40;99.90
45549;DHT22;31270;48.328;10.096;2022-09-20T20:41:07;7.40;99.90
45549;DHT22;31270;48.328;10.096;2022-09-20T20:43:35;7.40;99.90
45549;DHT22;31270;48.328;10.096;2022-09-20T20:46:02;7.40;99.90
45549;DHT22;31270;48.328;10.096;2022-09-20T20:48:29;7.40;99.90
45549;DHT22;31270;48.328;10.096;2022-09-20T20:51:03;7.30;99.90
45549;DHT22;31270;48.328;10.096;2022-09-20T20:53:31;7.30;99.90
45549;DHT22;31270;48.328;10.096;2022-09-20T20:56:02;7.30;99.90
45549;DHT22;31270;48.328;10.096;2022-09-20T20:58:29;7.20;99.90
45549;DHT22;31270;48.328;10.096;2022-09-20T21:01:09;7.20;99.90
45549;DHT22;31270;48.328;10.096;2022-09-20T21:03:34;7.10;99.90
45549;DHT22;31270;48.328;10.096;2022-09-20T21:06:01;7.00;99.90
45549;DHT22;31270;48.328;10.096;2022-09-20T21:08:33;7.00;99.90
45549;DHT22;31270;48.328;10.096;2022-09-20T21:11:00;6.90;99.90
45549;DHT22;31270;48.328;10.096;2022-09-20T21:13:27;6.90;99.90
45549;DHT22;31270;48.328;10.096;2022-09-20T21:16:00;6.90;99.90
45549;DHT22;31270;48.328;10.096;2022-09-20T21:18:26;6.90;99.90